sensor_id;sensor_type;location;lat;lon;timestamp;pressure;altitude;pressure_sealevel;temperature;humidity
30949;BME280;17637;51.984;21.208;2023-08-12T00:01:31;100961.78;;;11.89;74.04
30949;BME280;17637;51.984;21.208;2023-08-12T00:04:03;100931.59;;;11.87;73.30
30949;BME280;17637;51.984;21.208;2023-08-12T00:06:35;100943.56;;;11.89;73.03
30949;BME280;17637;51.984;21.208;2023-08-12T00:09:07;100956.50;;;11.91;72.98
30949;BME280;17637;51.984;21.208;2023-08-12T00:11:39;100953.69;;;11.81;73.33
30949;BME280;17637;51.984;21.208;2023-08-12T00:14:11;100939.22;;;11.77;72.84
30949;BME280;17637;51.984;21.208;2023-08-12T00:16:43;100962.53;;;11.91;72.74
30949;BME280;17637;51.984;21.208;2023-08-12T00:19:15;100943.56;;;11.76;72.66
30949;BME280;17637;51.984;21.208;2023-08-12T00:21:46;100965.44;;;11.87;72.93
30949;BME280;17637;51.984;21.208;2023-08-12T00:24:18;100958.88;;;11.81;72.91
30949;BME280;17637;51.984;21.208;2023-08-12T00:26:50;100915.44;;;11.43;73.78
30949;BME280;17637;51.984;21.208;2023-08-12T00:29:22;100953.28;;;11.74;72.91
30949;BME280;17637;51.984;21.208;2023-08-12T00:31:54;100950.94;;;11.57;73.75
30949;BME280;17637;51.984;21.208;2023-08-12T00:34:27;100957.81;;;11.45;74.24
30949;BME280;17637;51.984;21.208;2023-08-12T00:36:59;100928.13;;;11.35;73.78
30949;BME280;17637;51.984;21.208;2023-08-12T00:39:31;100960.50;;;11.43;74.36
30949;BME280;17637;51.984;21.208;2023-08-12T00:42:03;100957.34;;;11.38;74.67
30949;BME280;17637;51.984;21.208;2023-08-12T00:44:35;100959.56;;;11.44;74.09
30949;BME280;17637;51.984;21.208;2023-08-12T00:47:07;100934.03;;;11.37;73.35
30949;BME280;17637;51.984;21.208;2023-08-12T00:49:40;100911.00;;;11.18;73.41
30949;BME280;17637;51.984;21.208;2023-08-12T00:52:15;100941.00;;;11.23;74.19
30949;BME280;17637;51.984;21.208;2023-08-12T00:54:48;100954.16;;;11.35;73.44
30949;BME280;17637;51.984;21.208;2023-08-12T00:57:20;100962.97;;;11.32;74.07
30949;BME280;17637;51.984;21.208;2023-08-12T00:59:54;100945.97;;;11.13;74.64
30949;BME280;17637;51.984;21.208;2023-08-12T01:02:27;100948.88;;;11.09;74.80
30949;BME280;17637;51.984;21.208;2023-08-12T01:04:59;100924.47;;;10.97;74.16
30949;BME280;17637;51.984;21.208;2023-08-12T01:07:31;100958.97;;;11.13;74.76
30949;BME280;17637;51.984;21.208;2023-08-12T01:10:03;100946.06;;;11.12;74.26
30949;BME280;17637;51.984;21.208;2023-08-12T01:12:39;100950.19;;;11.02;74.85
30949;BME280;17637;51.984;21.208;2023-08-12T01:15:15;100950.22;;;11.14;74.25
30949;BME280;17637;51.984;21.208;2023-08-12T01:17:49;100949.53;;;10.98;74.95
30949;BME280;17637;51.984;21.208;2023-08-12T01:20:24;100944.63;;;10.93;75.04
30949;BME280;17637;51.984;21.208;2023-08-12T01:23:16;100940.88;;;10.85;75.09
30949;BME280;17637;51.984;21.208;2023-08-12T01:25:48;100928.44;;;10.75;75.31
30949;BME280;17637;51.984;21.208;2023-08-12T01:28:19;100939.91;;;10.86;74.43
30949;BME280;17637;51.984;21.208;2023-08-12T01:30:56;100933.91;;;10.85;74.89
30949;BME280;17637;51.984;21.208;2023-08-12T01:33:42;100935.06;;;10.94;74.34
30949;BME280;17637;51.984;21.208;2023-08-12T01:36:17;100937.53;;;10.82;74.64
30949;BME280;17637;51.984;21.208;2023-08-12T01:38:51;100935.50;;;10.73;75.09
30949;BME280;17637;51.984;21.208;2023-08-12T01:41:24;100938.56;;;10.80;74.36
30949;BME280;17637;51.984;21.208;2023-08-12T01:43:57;100943.53;;;10.83;74.24
30949;BME280;17637;51.984;21.208;2023-08-12T01:46:28;100942.56;;;10.71;74.31
30949;BME280;17637;51.984;21.208;2023-08-12T01:49:00;100945.66;;;10.63;74.78
30949;BME280;17637;51.984;21.208;2023-08-12T01:51:32;100908.09;;;10.40;74.57
30949;BME280;17637;51.984;21.208;2023-08-12T01:54:04;100929.25;;;10.48;75.04
30949;BME280;17637;51.984;21.208;2023-08-12T01:56:36;100934.75;;;10.44;75.29
30949;BME280;17637;51.984;21.208;2023-08-12T01:59:08;100918.84;;;10.34;74.79
30949;BME280;17637;51.984;21.208;2023-08-12T02:01:40;100941.22;;;10.37;75.37
30949;BME280;17637;51.984;21.208;2023-08-12T02:04:11;100928.13;;;10.24;76.11
30949;BME280;17637;51.984;21.208;2023-08-12T02:06:43;100937.81;;;10.36;75.56
30949;BME280;17637;51.984;21.208;2023-08-12T02:09:15;100924.25;;;10.31;75.06
30949;BME280;17637;51.984;21.208;2023-08-12T02:11:47;100939.38;;;10.24;75.66
30949;BME280;17637;51.984;21.208;2023-08-12T02:14:19;100922.84;;;10.11;75.74
30949;BME280;17637;51.984;21.208;2023-08-12T02:16:50;100943.72;;;10.24;75.62
30949;BME280;17637;51.984;21.208;2023-08-12T02:19:22;100930.72;;;10.24;74.88
30949;BME280;17637;51.984;21.208;2023-08-12T02:21:54;100948.28;;;10.34;74.85
30949;BME280;17637;51.984;21.208;2023-08-12T02:24:26;100928.59;;;10.30;74.33
30949;BME280;17637;51.984;21.208;2023-08-12T02:26:58;100934.25;;;10.23;74.80
30949;BME280;17637;51.984;21.208;2023-08-12T02:29:29;100933.53;;;10.21;75.00
30949;BME280;17637;51.984;21.208;2023-08-12T02:32:01;100936.22;;;10.33;74.26
30949;BME280;17637;51.984;21.208;2023-08-12T02:34:33;100930.47;;;10.28;74.48
30949;BME280;17637;51.984;21.208;2023-08-12T02:37:05;100930.00;;;10.07;75.27
30949;BME280;17637;51.984;21.208;2023-08-12T02:39:37;100942.50;;;10.15;75.03
30949;BME280;17637;51.984;21.208;2023-08-12T02:42:08;100913.84;;;10.02;74.60
30949;BME280;17637;51.984;21.208;2023-08-12T02:44:40;100894.94;;;9.85;74.45
30949;BME280;17637;51.984;21.208;2023-08-12T02:47:12;100940.66;;;10.17;74.30
30949;BME280;17637;51.984;21.208;2023-08-12T02:49:44;100945.56;;;10.07;74.32
30949;BME280;17637;51.984;21.208;2023-08-12T02:52:16;100942.41;;;10.02;75.18
30949;BME280;17637;51.984;21.208;2023-08-12T02:54:48;100966.06;;;9.97;75.40
30949;BME280;17637;51.984;21.208;2023-08-12T02:57:20;100957.06;;;10.03;74.94
30949;BME280;17637;51.984;21.208;2023-08-12T02:59:52;100955.59;;;9.99;75.10
30949;BME280;17637;51.984;21.208;2023-08-12T03:02:24;100943.91;;;10.06;74.47
30949;BME280;17637;51.984;21.208;2023-08-12T03:04:55;100935.19;;;10.07;74.21
30949;BME280;17637;51.984;21.208;2023-08-12T03:07:27;100941.75;;;9.98;75.02
30949;BME280;17637;51.984;21.208;2023-08-12T03:10:00;100954.22;;;10.08;74.20
30949;BME280;17637;51.984;21.208;2023-08-12T03:12:31;100959.22;;;9.96;74.37
30949;BME280;17637;51.984;21.208;2023-08-12T03:15:08;100957.44;;;9.97;74.58
30949;BME280;17637;51.984;21.208;2023-08-12T03:17:40;100956.97;;;9.90;74.80
30949;BME280;17637;51.984;21.208;2023-08-12T03:20:13;100947.41;;;9.91;74.31
30949;BME280;17637;51.984;21.208;2023-08-12T03:22:45;100927.56;;;9.75;74.50
30949;BME280;17637;51.984;21.208;2023-08-12T03:25:16;100975.72;;;9.95;75.09
30949;BME280;17637;51.984;21.208;2023-08-12T03:27:48;100974.13;;;9.93;75.20
30949;BME280;17637;51.984;21.208;2023-08-12T03:30:20;100971.34;;;9.96;75.24
30949;BME280;17637;51.984;21.208;2023-08-12T03:32:52;100981.00;;;10.08;74.63
30949;BME280;17637;51.984;21.208;2023-08-12T03:35:24;100969.13;;;10.04;74.83
30949;BME280;17637;51.984;21.208;2023-08-12T03:37:56;100966.16;;;9.96;74.92
30949;BME280;17637;51.984;21.208;2023-08-12T03:40:28;100941.19;;;9.93;74.26
30949;BME280;17637;51.984;21.208;2023-08-12T03:43:00;100982.22;;;10.17;74.07
30949;BME280;17637;51.984;21.208;2023-08-12T03:45:31;100987.72;;;10.27;74.19
30949;BME280;17637;51.984;21.208;2023-08-12T03:48:03;100994.09;;;10.21;74.77
30949;BME280;17637;51.984;21.208;2023-08-12T03:50:39;100985.41;;;10.37;74.30
30949;BME280;17637;51.984;21.208;2023-08-12T03:53:11;100991.59;;;10.34;74.31
30949;BME280;17637;51.984;21.208;2023-08-12T03:55:43;100993.09;;;10.38;74.19
30949;BME280;17637;51.984;21.208;2023-08-12T03:58:15;100956.16;;;10.18;74.38
30949;BME280;17637;51.984;21.208;2023-08-12T04:00:46;100980.47;;;10.46;74.33
30949;BME280;17637;51.984;21.208;2023-08-12T04:03:18;100954.38;;;10.33;74.36
30949;BME280;17637;51.984;21.208;2023-08-12T04:05:50;100959.81;;;10.45;74.00
30949;BME280;17637;51.984;21.208;2023-08-12T04:08:24;100974.06;;;10.66;73.22
30949;BME280;17637;51.984;21.208;2023-08-12T04:10:56;100984.59;;;10.78;73.15
30949;BME280;17637;51.984;21.208;2023-08-12T04:13:28;100999.81;;;10.84;73.67
30949;BME280;17637;51.984;21.208;2023-08-12T04:15:59;100976.31;;;10.86;74.23
30949;BME280;17637;51.984;21.208;2023-08-12T04:18:32;100981.69;;;10.97;73.76
30949;BME280;17637;51.984;21.208;2023-08-12T04:21:03;100980.91;;;11.09;74.31
30949;BME280;17637;51.984;21.208;2023-08-12T04:23:35;100985.19;;;11.10;74.67
30949;BME280;17637;51.984;21.208;2023-08-12T04:26:07;100987.72;;;11.25;74.30
30949;BME280;17637;51.984;21.208;2023-08-12T04:28:39;100998.28;;;11.36;74.71
30949;BME280;17637;51.984;21.208;2023-08-12T04:31:10;100991.72;;;11.43;74.08
30949;BME280;17637;51.984;21.208;2023-08-12T04:33:42;100962.38;;;11.41;73.79
30949;BME280;17637;51.984;21.208;2023-08-12T04:36:14;100995.75;;;11.75;73.18
30949;BME280;17637;51.984;21.208;2023-08-12T04:38:46;100991.88;;;11.80;73.94
30949;BME280;17637;51.984;21.208;2023-08-12T04:41:18;100984.19;;;11.92;73.14
30949;BME280;17637;51.984;21.208;2023-08-12T04:43:50;100997.88;;;12.08;73.07
30949;BME280;17637;51.984;21.208;2023-08-12T04:46:22;100986.75;;;12.19;72.75
30949;BME280;17637;51.984;21.208;2023-08-12T04:48:54;101005.50;;;12.37;72.19
30949;BME280;17637;51.984;21.208;2023-08-12T04:51:26;100982.44;;;12.44;71.50
30949;BME280;17637;51.984;21.208;2023-08-12T04:53:58;100985.94;;;12.56;71.63
30949;BME280;17637;51.984;21.208;2023-08-12T04:56:32;101000.81;;;12.79;69.14
30949;BME280;17637;51.984;21.208;2023-08-12T04:59:03;100995.88;;;12.88;70.53
30949;BME280;17637;51.984;21.208;2023-08-12T05:01:35;100983.28;;;13.06;68.63
30949;BME280;17637;51.984;21.208;2023-08-12T05:04:13;100978.44;;;13.12;69.66
30949;BME280;17637;51.984;21.208;2023-08-12T05:06:45;100990.91;;;13.33;68.74
30949;BME280;17637;51.984;21.208;2023-08-12T05:09:16;100981.69;;;13.40;67.87
30949;BME280;17637;51.984;21.208;2023-08-12T05:11:48;100930.47;;;13.26;67.89
30949;BME280;17637;51.984;21.208;2023-08-12T05:14:20;100981.69;;;13.76;67.83
30949;BME280;17637;51.984;21.208;2023-08-12T05:16:52;100972.78;;;13.78;67.70
30949;BME280;17637;51.984;21.208;2023-08-12T05:19:24;100969.59;;;13.98;67.84
30949;BME280;17637;51.984;21.208;2023-08-12T05:21:56;100970.31;;;14.11;66.22
30949;BME280;17637;51.984;21.208;2023-08-12T05:24:28;100962.59;;;14.09;64.58
30949;BME280;17637;51.984;21.208;2023-08-12T05:26:59;100975.66;;;14.32;64.74
30949;BME280;17637;51.984;21.208;2023-08-12T05:29:31;100967.09;;;14.41;63.46
30949;BME280;17637;51.984;21.208;2023-08-12T05:32:03;100938.09;;;14.44;64.24
30949;BME280;17637;51.984;21.208;2023-08-12T05:34:35;100964.94;;;14.81;62.76
30949;BME280;17637;51.984;21.208;2023-08-12T05:37:07;100962.47;;;15.12;62.07
30949;BME280;17637;51.984;21.208;2023-08-12T05:39:39;100968.31;;;15.57;61.44
30949;BME280;17637;51.984;21.208;2023-08-12T05:42:11;100960.50;;;15.67;60.87
30949;BME280;17637;51.984;21.208;2023-08-12T05:44:43;100958.91;;;15.76;59.57
30949;BME280;17637;51.984;21.208;2023-08-12T05:47:15;100967.66;;;16.07;59.44
30949;BME280;17637;51.984;21.208;2023-08-12T05:49:47;100956.13;;;16.30;59.31
30949;BME280;17637;51.984;21.208;2023-08-12T05:52:18;100963.53;;;16.55;60.52
30949;BME280;17637;51.984;21.208;2023-08-12T05:54:50;100952.22;;;16.55;59.99
30949;BME280;17637;51.984;21.208;2023-08-12T05:57:22;100946.72;;;16.78;59.57
30949;BME280;17637;51.984;21.208;2023-08-12T05:59:55;100948.38;;;16.79;59.93
30949;BME280;17637;51.984;21.208;2023-08-12T06:02:27;100949.81;;;17.02;59.29
30949;BME280;17637;51.984;21.208;2023-08-12T06:04:59;100961.44;;;17.29;58.27
30949;BME280;17637;51.984;21.208;2023-08-12T06:07:31;100936.38;;;17.25;57.64
30949;BME280;17637;51.984;21.208;2023-08-12T06:10:02;100941.91;;;17.51;57.96
30949;BME280;17637;51.984;21.208;2023-08-12T06:12:35;100940.63;;;17.65;57.76
30949;BME280;17637;51.984;21.208;2023-08-12T06:15:07;100938.31;;;17.90;57.08
30949;BME280;17637;51.984;21.208;2023-08-12T06:17:38;100940.09;;;18.09;57.25
30949;BME280;17637;51.984;21.208;2023-08-12T06:20:11;100957.13;;;18.33;58.04
30949;BME280;17637;51.984;21.208;2023-08-12T06:22:43;100956.31;;;18.32;58.68
30949;BME280;17637;51.984;21.208;2023-08-12T06:25:15;100908.22;;;18.12;56.24
30949;BME280;17637;51.984;21.208;2023-08-12T06:27:46;100962.56;;;18.49;56.18
30949;BME280;17637;51.984;21.208;2023-08-12T06:30:18;100960.50;;;18.71;55.77
30949;BME280;17637;51.984;21.208;2023-08-12T06:32:50;100948.63;;;18.67;56.13
30949;BME280;17637;51.984;21.208;2023-08-12T06:35:22;100936.00;;;18.71;57.36
30949;BME280;17637;51.984;21.208;2023-08-12T06:37:54;100920.75;;;18.74;56.11
30949;BME280;17637;51.984;21.208;2023-08-12T06:40:26;100962.34;;;19.25;57.25
30949;BME280;17637;51.984;21.208;2023-08-12T06:42:59;100953.38;;;19.35;55.64
30949;BME280;17637;51.984;21.208;2023-08-12T06:45:31;100944.75;;;19.07;54.17
30949;BME280;17637;51.984;21.208;2023-08-12T06:48:03;100955.25;;;19.43;55.23
30949;BME280;17637;51.984;21.208;2023-08-12T06:50:35;100951.31;;;19.74;54.09
30949;BME280;17637;51.984;21.208;2023-08-12T06:53:07;100951.97;;;19.94;53.66
30949;BME280;17637;51.984;21.208;2023-08-12T06:55:44;100925.13;;;19.98;52.76
30949;BME280;17637;51.984;21.208;2023-08-12T06:58:16;100953.94;;;20.35;52.55
30949;BME280;17637;51.984;21.208;2023-08-12T07:00:48;100972.50;;;20.51;52.50
30949;BME280;17637;51.984;21.208;2023-08-12T07:03:20;100944.66;;;20.22;52.29
30949;BME280;17637;51.984;21.208;2023-08-12T07:05:53;100964.34;;;20.44;53.66
30949;BME280;17637;51.984;21.208;2023-08-12T07:08:25;100961.75;;;20.53;52.95
30949;BME280;17637;51.984;21.208;2023-08-12T07:10:58;100933.22;;;20.56;50.97
30949;BME280;17637;51.984;21.208;2023-08-12T07:13:30;100942.84;;;20.74;50.38
30949;BME280;17637;51.984;21.208;2023-08-12T07:16:02;100933.88;;;20.50;50.07
30949;BME280;17637;51.984;21.208;2023-08-12T07:18:34;100920.91;;;20.73;49.21
30949;BME280;17637;51.984;21.208;2023-08-12T07:21:06;100942.38;;;20.95;47.50
30949;BME280;17637;51.984;21.208;2023-08-12T07:23:37;100945.03;;;21.20;48.53
30949;BME280;17637;51.984;21.208;2023-08-12T07:26:14;100940.22;;;21.31;42.24
30949;BME280;17637;51.984;21.208;2023-08-12T07:28:46;100950.63;;;21.41;40.63
30949;BME280;17637;51.984;21.208;2023-08-12T07:31:17;100937.44;;;21.33;42.83
30949;BME280;17637;51.984;21.208;2023-08-12T07:33:49;100940.19;;;21.48;41.04
30949;BME280;17637;51.984;21.208;2023-08-12T07:36:21;100954.53;;;21.87;39.30
30949;BME280;17637;51.984;21.208;2023-08-12T07:38:54;100948.19;;;22.04;40.30
30949;BME280;17637;51.984;21.208;2023-08-12T07:41:25;100941.72;;;22.07;38.42
30949;BME280;17637;51.984;21.208;2023-08-12T07:43:59;100946.28;;;22.21;37.00
30949;BME280;17637;51.984;21.208;2023-08-12T07:46:31;100933.00;;;22.38;39.78
30949;BME280;17637;51.984;21.208;2023-08-12T07:49:03;100937.50;;;22.37;38.81
30949;BME280;17637;51.984;21.208;2023-08-12T07:51:35;100926.38;;;22.34;35.93
30949;BME280;17637;51.984;21.208;2023-08-12T07:54:07;100929.84;;;22.42;34.48
30949;BME280;17637;51.984;21.208;2023-08-12T07:56:39;100878.19;;;22.15;33.86
30949;BME280;17637;51.984;21.208;2023-08-12T07:59:11;100925.75;;;22.63;36.90
30949;BME280;17637;51.984;21.208;2023-08-12T08:01:43;100925.94;;;22.85;34.62
30949;BME280;17637;51.984;21.208;2023-08-12T08:04:14;100927.50;;;22.94;34.10
30949;BME280;17637;51.984;21.208;2023-08-12T08:06:46;100923.03;;;22.94;33.72
30949;BME280;17637;51.984;21.208;2023-08-12T08:09:21;100890.84;;;22.59;30.87
30949;BME280;17637;51.984;21.208;2023-08-12T08:11:53;100880.19;;;22.68;31.08
30949;BME280;17637;51.984;21.208;2023-08-12T08:14:27;100878.84;;;22.72;33.06
30949;BME280;17637;51.984;21.208;2023-08-12T08:16:59;100915.44;;;22.91;32.11
30949;BME280;17637;51.984;21.208;2023-08-12T08:19:31;100915.38;;;22.53;31.86
30949;BME280;17637;51.984;21.208;2023-08-12T08:22:03;100907.56;;;22.60;32.45
30949;BME280;17637;51.984;21.208;2023-08-12T08:24:35;100902.13;;;22.53;32.71
30949;BME280;17637;51.984;21.208;2023-08-12T08:27:06;100886.31;;;22.68;32.72
30949;BME280;17637;51.984;21.208;2023-08-12T08:29:39;100908.75;;;23.19;35.59
30949;BME280;17637;51.984;21.208;2023-08-12T08:32:11;100908.09;;;22.55;33.26
30949;BME280;17637;51.984;21.208;2023-08-12T08:34:43;100879.13;;;22.22;33.38
30949;BME280;17637;51.984;21.208;2023-08-12T08:37:15;100899.53;;;22.45;33.25
30949;BME280;17637;51.984;21.208;2023-08-12T08:39:47;100911.91;;;22.53;32.42
30949;BME280;17637;51.984;21.208;2023-08-12T08:42:20;100878.25;;;22.30;32.10
30949;BME280;17637;51.984;21.208;2023-08-12T08:44:52;100912.63;;;22.70;33.36
30949;BME280;17637;51.984;21.208;2023-08-12T08:47:26;100888.09;;;23.14;34.82
30949;BME280;17637;51.984;21.208;2023-08-12T08:49:58;100897.19;;;23.35;34.09
30949;BME280;17637;51.984;21.208;2023-08-12T08:52:32;100894.56;;;23.50;33.89
30949;BME280;17637;51.984;21.208;2023-08-12T08:55:04;100874.69;;;23.61;33.48
30949;BME280;17637;51.984;21.208;2023-08-12T08:57:39;100883.31;;;23.63;32.82
30949;BME280;17637;51.984;21.208;2023-08-12T09:00:18;100895.09;;;24.05;33.09
30949;BME280;17637;51.984;21.208;2023-08-12T09:02:50;100886.97;;;23.77;31.98
30949;BME280;17637;51.984;21.208;2023-08-12T09:05:23;100875.88;;;23.73;32.14
30949;BME280;17637;51.984;21.208;2023-08-12T09:07:56;100894.16;;;23.38;32.26
30949;BME280;17637;51.984;21.208;2023-08-12T09:10:29;100887.31;;;23.43;32.08
30949;BME280;17637;51.984;21.208;2023-08-12T09:13:02;100892.28;;;23.62;31.92
30949;BME280;17637;51.984;21.208;2023-08-12T09:15:35;100892.53;;;23.37;33.65
30949;BME280;17637;51.984;21.208;2023-08-12T09:18:07;100875.31;;;23.78;33.03
30949;BME280;17637;51.984;21.208;2023-08-12T09:20:38;100853.88;;;23.57;32.96
30949;BME280;17637;51.984;21.208;2023-08-12T09:23:11;100864.44;;;23.87;32.46
30949;BME280;17637;51.984;21.208;2023-08-12T09:25:44;100869.84;;;24.31;34.35
30949;BME280;17637;51.984;21.208;2023-08-12T09:28:16;100866.94;;;24.26;34.93
30949;BME280;17637;51.984;21.208;2023-08-12T09:30:51;100844.69;;;24.27;33.92
30949;BME280;17637;51.984;21.208;2023-08-12T09:33:26;100858.59;;;24.29;33.40
30949;BME280;17637;51.984;21.208;2023-08-12T09:35:58;100854.03;;;24.44;32.42
30949;BME280;17637;51.984;21.208;2023-08-12T09:38:30;100869.19;;;24.65;32.80
30949;BME280;17637;51.984;21.208;2023-08-12T09:41:02;100854.66;;;24.24;32.90
30949;BME280;17637;51.984;21.208;2023-08-12T09:43:34;100836.03;;;24.39;32.21
30949;BME280;17637;51.984;21.208;2023-08-12T09:46:06;100860.28;;;24.58;33.07
30949;BME280;17637;51.984;21.208;2023-08-12T09:48:38;100857.41;;;23.95;32.48
30949;BME280;17637;51.984;21.208;2023-08-12T09:51:10;100863.69;;;24.30;33.15
30949;BME280;17637;51.984;21.208;2023-08-12T09:53:42;100838.72;;;24.24;33.09
30949;BME280;17637;51.984;21.208;2023-08-12T09:56:18;100852.56;;;24.20;32.09
30949;BME280;17637;51.984;21.208;2023-08-12T09:58:51;100861.63;;;24.47;31.49
30949;BME280;17637;51.984;21.208;2023-08-12T10:01:24;100871.50;;;24.32;31.88
30949;BME280;17637;51.984;21.208;2023-08-12T10:03:56;100848.41;;;23.96;31.69
30949;BME280;17637;51.984;21.208;2023-08-12T10:06:28;100818.13;;;24.05;33.09
30949;BME280;17637;51.984;21.208;2023-08-12T10:09:00;100847.97;;;24.29;32.75
30949;BME280;17637;51.984;21.208;2023-08-12T10:11:33;100853.47;;;24.49;32.60
30949;BME280;17637;51.984;21.208;2023-08-12T10:14:06;100845.09;;;24.08;33.04
30949;BME280;17637;51.984;21.208;2023-08-12T10:16:38;100817.09;;;24.06;32.96
30949;BME280;17637;51.984;21.208;2023-08-12T10:19:11;100841.16;;;24.41;32.00
30949;BME280;17637;51.984;21.208;2023-08-12T10:21:44;100832.59;;;24.46;32.88
30949;BME280;17637;51.984;21.208;2023-08-12T10:24:17;100826.97;;;24.55;34.41
30949;BME280;17637;51.984;21.208;2023-08-12T10:26:51;100806.69;;;24.26;32.68
30949;BME280;17637;51.984;21.208;2023-08-12T10:29:24;100810.47;;;24.38;31.47
30949;BME280;17637;51.984;21.208;2023-08-12T10:31:57;100825.31;;;24.54;31.26
30949;BME280;17637;51.984;21.208;2023-08-12T10:34:29;100828.75;;;24.70;32.18
30949;BME280;17637;51.984;21.208;2023-08-12T10:37:01;100816.81;;;24.87;32.11
30949;BME280;17637;51.984;21.208;2023-08-12T10:39:35;100798.13;;;24.74;34.09
30949;BME280;17637;51.984;21.208;2023-08-12T10:42:07;100808.69;;;24.46;31.83
30949;BME280;17637;51.984;21.208;2023-08-12T10:44:40;100830.25;;;24.57;31.53
30949;BME280;17637;51.984;21.208;2023-08-12T10:47:12;100797.91;;;24.69;32.46
30949;BME280;17637;51.984;21.208;2023-08-12T10:49:48;100820.41;;;25.01;32.89
30949;BME280;17637;51.984;21.208;2023-08-12T10:52:28;100811.41;;;24.52;32.12
30949;BME280;17637;51.984;21.208;2023-08-12T10:55:23;100809.28;;;24.91;34.14
30949;BME280;17637;51.984;21.208;2023-08-12T10:57:57;100805.34;;;25.15;33.70
30949;BME280;17637;51.984;21.208;2023-08-12T11:00:29;100784.53;;;25.26;32.73
30949;BME280;17637;51.984;21.208;2023-08-12T11:03:05;100789.44;;;24.87;32.71
30949;BME280;17637;51.984;21.208;2023-08-12T11:05:38;100796.00;;;24.91;33.23
30949;BME280;17637;51.984;21.208;2023-08-12T11:08:13;100789.81;;;24.84;32.95
30949;BME280;17637;51.984;21.208;2023-08-12T11:10:45;100761.19;;;24.79;32.98
30949;BME280;17637;51.984;21.208;2023-08-12T11:13:16;100779.84;;;24.93;33.50
30949;BME280;17637;51.984;21.208;2023-08-12T11:15:48;100783.03;;;24.81;32.86
30949;BME280;17637;51.984;21.208;2023-08-12T11:18:21;100772.81;;;24.78;32.69
30949;BME280;17637;51.984;21.208;2023-08-12T11:20:53;100770.19;;;24.85;32.93
30949;BME280;17637;51.984;21.208;2023-08-12T11:23:25;100740.00;;;24.64;33.18
30949;BME280;17637;51.984;21.208;2023-08-12T11:25:57;100771.41;;;24.82;32.93
30949;BME280;17637;51.984;21.208;2023-08-12T11:28:29;100758.09;;;24.76;32.34
30949;BME280;17637;51.984;21.208;2023-08-12T11:31:01;100760.81;;;24.61;32.46
30949;BME280;17637;51.984;21.208;2023-08-12T11:33:33;100767.38;;;24.93;32.27
30949;BME280;17637;51.984;21.208;2023-08-12T11:36:05;100742.28;;;24.67;33.49
30949;BME280;17637;51.984;21.208;2023-08-12T11:38:37;100749.13;;;24.55;33.71
30949;BME280;17637;51.984;21.208;2023-08-12T11:41:09;100763.69;;;24.37;32.62
30949;BME280;17637;51.984;21.208;2023-08-12T11:43:41;100736.81;;;24.76;33.27
30949;BME280;17637;51.984;21.208;2023-08-12T11:46:15;100752.00;;;25.23;34.67
30949;BME280;17637;51.984;21.208;2023-08-12T11:48:47;100755.63;;;25.09;32.33
30949;BME280;17637;51.984;21.208;2023-08-12T11:51:22;100744.78;;;25.11;33.08
30949;BME280;17637;51.984;21.208;2023-08-12T11:53:54;100744.28;;;24.94;31.73
30949;BME280;17637;51.984;21.208;2023-08-12T11:56:26;100731.91;;;25.14;32.75
30949;BME280;17637;51.984;21.208;2023-08-12T11:58:58;100734.56;;;25.08;33.30
30949;BME280;17637;51.984;21.208;2023-08-12T12:01:31;100725.59;;;25.15;32.80
30949;BME280;17637;51.984;21.208;2023-08-12T12:04:03;100724.28;;;24.98;33.04
30949;BME280;17637;51.984;21.208;2023-08-12T12:06:38;100730.94;;;25.29;33.94
30949;BME280;17637;51.984;21.208;2023-08-12T12:09:10;100716.94;;;25.00;32.34
30949;BME280;17637;51.984;21.208;2023-08-12T12:11:42;100729.06;;;25.16;34.12
30949;BME280;17637;51.984;21.208;2023-08-12T12:14:13;100728.38;;;25.42;33.18
30949;BME280;17637;51.984;21.208;2023-08-12T12:16:47;100742.50;;;25.43;32.23
30949;BME280;17637;51.984;21.208;2023-08-12T12:19:21;100728.63;;;25.47;34.12
30949;BME280;17637;51.984;21.208;2023-08-12T12:21:53;100743.16;;;25.65;32.81
30949;BME280;17637;51.984;21.208;2023-08-12T12:24:29;100720.00;;;25.45;33.90
30949;BME280;17637;51.984;21.208;2023-08-12T12:27:01;100740.94;;;25.20;31.62
30949;BME280;17637;51.984;21.208;2023-08-12T12:29:34;100698.38;;;25.13;31.46
30949;BME280;17637;51.984;21.208;2023-08-12T12:32:06;100729.34;;;25.34;32.56
30949;BME280;17637;51.984;21.208;2023-08-12T12:34:38;100690.94;;;25.37;32.16
30949;BME280;17637;51.984;21.208;2023-08-12T12:37:09;100729.06;;;25.64;33.07
30949;BME280;17637;51.984;21.208;2023-08-12T12:39:41;100712.31;;;25.77;32.15
30949;BME280;17637;51.984;21.208;2023-08-12T12:42:13;100719.06;;;25.73;33.28
30949;BME280;17637;51.984;21.208;2023-08-12T12:44:45;100686.69;;;25.63;32.26
30949;BME280;17637;51.984;21.208;2023-08-12T12:47:17;100710.22;;;25.52;32.48
30949;BME280;17637;51.984;21.208;2023-08-12T12:49:49;100689.72;;;25.46;35.79
30949;BME280;17637;51.984;21.208;2023-08-12T12:52:21;100703.69;;;25.68;33.35
30949;BME280;17637;51.984;21.208;2023-08-12T12:54:53;100698.78;;;25.59;32.05
30949;BME280;17637;51.984;21.208;2023-08-12T12:57:25;100701.16;;;25.47;32.25
30949;BME280;17637;51.984;21.208;2023-08-12T12:59:56;100686.09;;;25.12;32.83
30949;BME280;17637;51.984;21.208;2023-08-12T13:02:28;100707.69;;;25.37;32.80
30949;BME280;17637;51.984;21.208;2023-08-12T13:05:00;100703.31;;;25.16;32.27
30949;BME280;17637;51.984;21.208;2023-08-12T13:07:32;100701.75;;;25.35;32.86